Time;durP1;ratioP1;P1;durP2;ratioP2;P2;SDS_P1;SDS_P2;PMS_P1;PMS_P2;Temp;Humidity;BMP_temperature;BMP_pressure;BME280_temperature;BME280_humidity;BME280_pressure;Samples;Min_cycle;Max_cycle;Signal;HPM_P1;HPM_P2
2022/01/06 00:01:42;;;;;;;1.27;1.17;;;-10.70;99.90;;;;;;4916837;29;20031;-71
2022/01/06 00:04:08;;;;;;;1.20;1.20;;;-10.70;99.90;;;;;;4916429;29;20036;-71
2022/01/06 00:06:40;;;;;;;1.48;1.38;;;-10.70;99.90;;;;;;4916576;29;20083;-72
2022/01/06 00:09:07;;;;;;;1.48;1.38;;;-10.70;99.90;;;;;;4916542;29;20032;-72
2022/01/06 00:11:34;;;;;;;1.27;1.20;;;-10.70;99.90;;;;;;4916403;29;20032;-71
2022/01/06 00:24:26;;;;;;;1.60;1.50;;;-10.70;99.90;;;;;;4916380;29;20127;-69
2022/01/06 00:26:52;;;;;;;1.30;1.20;;;-10.70;99.90;;;;;;4916248;29;20028;-69
2022/01/06 00:29:18;;;;;;;1.45;1.35;;;-10.80;99.90;;;;;;4916177;29;20035;-69
2022/01/06 00:31:44;;;;;;;2.53;1.40;;;-10.80;99.90;;;;;;4916446;29;20103;-69
2022/01/06 00:34:10;;;;;;;1.42;1.30;;;-10.80;99.90;;;;;;4915706;29;20548;-70
2022/01/06 00:36:41;;;;;;;1.40;1.30;;;-10.80;99.90;;;;;;4915803;29;20036;-70
2022/01/06 00:39:08;;;;;;;1.60;1.50;;;-10.70;99.90;;;;;;4916310;29;20048;-70
2022/01/06 00:41:36;;;;;;;3.53;1.10;;;-10.70;99.90;;;;;;4914608;29;20028;-69
2022/01/06 00:44:04;;;;;;;3.88;1.52;;;-10.70;99.90;;;;;;4915953;29;20566;-70
2022/01/06 00:46:30;;;;;;;3.33;1.30;;;-10.70;99.90;;;;;;4915779;29;20055;-69
2022/01/06 00:48:55;;;;;;;3.17;1.35;;;-10.80;99.90;;;;;;4916013;29;20036;-69
2022/01/06 00:51:21;;;;;;;1.80;1.30;;;-10.80;99.90;;;;;;4915793;29;20020;-69
2022/01/06 00:53:47;;;;;;;2.03;1.35;;;-10.80;99.90;;;;;;4915929;29;20099;-69
2022/01/06 00:56:13;;;;;;;1.58;1.25;;;-10.80;99.90;;;;;;4914533;29;20024;-69
2022/01/06 00:58:39;;;;;;;1.63;1.50;;;-10.70;99.90;;;;;;4915769;29;20028;-69
2022/01/06 01:01:05;;;;;;;1.33;1.23;;;-10.70;99.90;;;;;;4915854;29;20028;-71
2022/01/06 01:03:30;;;;;;;1.70;1.60;;;-10.70;99.90;;;;;;4915534;29;20036;-72
2022/01/06 01:05:57;;;;;;;1.40;1.30;;;-10.70;99.90;;;;;;4915729;29;20384;-72
2022/01/06 01:08:25;;;;;;;1.23;1.23;;;-10.60;99.90;;;;;;4915600;29;20035;-72
2022/01/06 01:10:53;;;;;;;1.45;1.38;;;-10.70;99.90;;;;;;4916038;29;20035;-71
2022/01/06 01:13:27;;;;;;;1.60;1.50;;;-10.60;99.90;;;;;;4915569;29;20075;-71
2022/01/06 01:15:56;;;;;;;2.45;1.20;;;-10.60;99.90;;;;;;4915807;29;20031;-72
2022/01/06 01:18:23;;;;;;;3.13;1.30;;;-10.70;99.90;;;;;;4915561;29;20555;-71
2022/01/06 01:20:53;;;;;;;1.77;1.17;;;-10.70;99.90;;;;;;4915964;29;20028;-71
2022/01/06 01:23:20;;;;;;;3.65;1.45;;;-10.80;99.90;;;;;;4914538;29;20036;-72
2022/01/06 01:25:46;;;;;;;1.30;1.20;;;-10.80;99.90;;;;;;4915646;29;20044;-72
2022/01/06 01:28:14;;;;;;;2.50;1.27;;;-10.80;99.90;;;;;;4915632;29;20020;-73
2022/01/06 01:31:12;;;;;;;1.35;1.30;;;-10.80;99.90;;;;;;4915856;29;20040;-73
2022/01/06 01:33:26;;;;;;;1.50;1.30;;;-10.90;99.90;;;;;;4915231;29;20040;-72
2022/01/06 01:35:52;;;;;;;1.52;1.13;;;-10.90;99.90;;;;;;4915641;29;20035;-72
2022/01/06 01:38:18;;;;;;;1.60;1.50;;;-10.90;99.90;;;;;;4915266;29;20145;-72
2022/01/06 01:40:43;;;;;;;1.55;1.30;;;-10.90;99.90;;;;;;4915661;29;20039;-72
2022/01/06 01:43:09;;;;;;;1.30;1.20;;;-10.90;99.90;;;;;;4915529;29;20107;-72
2022/01/06 01:45:39;;;;;;;2.22;1.38;;;-10.90;99.90;;;;;;4916107;29;20040;-71
2022/01/06 01:48:07;;;;;;;1.30;1.20;;;-10.90;99.90;;;;;;4919241;29;20369;-72
2022/01/06 01:50:33;;;;;;;1.35;1.33;;;-10.80;99.90;;;;;;4918908;29;20036;-72
2022/01/06 01:52:59;;;;;;;1.58;1.48;;;-10.80;99.90;;;;;;4919012;29;20028;-72
2022/01/06 01:55:27;;;;;;;1.40;1.30;;;-10.80;99.90;;;;;;4918738;29;20036;-71
2022/01/06 01:57:54;;;;;;;1.58;1.40;;;-10.80;99.90;;;;;;4919019;29;20403;-71
2022/01/06 02:00:22;;;;;;;3.85;1.30;;;-10.80;99.90;;;;;;4918841;29;20024;-71
2022/01/06 02:02:48;;;;;;;1.20;1.20;;;-10.80;99.90;;;;;;4918694;29;20498;-71
2022/01/06 02:05:13;;;;;;;1.30;1.30;;;-10.80;99.90;;;;;;4918657;29;20119;-71
2022/01/06 02:07:41;;;;;;;1.45;1.35;;;-10.90;99.90;;;;;;4918664;29;20017;-71
2022/01/06 02:10:09;;;;;;;1.52;1.40;;;-10.90;99.90;;;;;;4918653;29;20036;-71
2022/01/06 02:12:37;;;;;;;1.10;1.10;;;-10.80;99.90;;;;;;4918468;29;20083;-71
2022/01/06 02:15:06;;;;;;;1.50;1.40;;;-10.80;99.90;;;;;;4918559;29;20028;-71
2022/01/06 02:17:32;;;;;;;1.33;1.20;;;-10.80;99.90;;;;;;4918359;29;20024;-71
2022/01/06 02:20:04;;;;;;;1.35;1.25;;;-10.80;99.90;;;;;;4918769;29;20036;-71
2022/01/06 02:22:30;;;;;;;1.40;1.30;;;-10.90;99.90;;;;;;4918347;29;20448;-71
2022/01/06 02:56:25;;;;;;;1.02;1.00;;;-10.90;99.90;;;;;;4914176;29;20043;-73
2022/01/06 02:58:51;;;;;;;1.98;1.50;;;-10.90;99.90;;;;;;4917574;29;20028;-71
2022/01/06 03:01:17;;;;;;;1.40;1.30;;;-11.00;99.90;;;;;;4917955;29;20051;-71
2022/01/06 03:37:22;;;;;;;4.75;1.30;;;-10.70;99.90;;;;;;5892662;23;19938;-71
2022/01/06 03:39:48;;;;;;;1.30;1.20;;;-10.70;99.90;;;;;;4933966;29;20031;-74
2022/01/06 03:42:13;;;;;;;1.33;1.23;;;-10.70;99.90;;;;;;4935986;29;20024;-73
2022/01/06 03:44:39;;;;;;;1.35;1.30;;;-10.70;99.90;;;;;;4935446;29;20046;-73
2022/01/06 03:47:06;;;;;;;1.45;1.35;;;-10.70;99.90;;;;;;4935865;29;20054;-71
2022/01/06 03:49:32;;;;;;;2.00;1.17;;;-10.70;99.90;;;;;;4934536;29;20035;-72
2022/01/06 03:51:57;;;;;;;6.35;1.50;;;-10.70;99.90;;;;;;4935748;29;20395;-72
2022/01/06 03:54:23;;;;;;;1.48;1.25;;;-10.60;99.90;;;;;;4935744;29;20030;-73
2022/01/06 03:56:49;;;;;;;1.48;1.38;;;-10.60;99.90;;;;;;4935657;29;20035;-69
2022/01/06 03:59:18;;;;;;;1.00;1.00;;;-10.60;99.90;;;;;;4935573;29;20028;-70
2022/01/06 04:01:45;;;;;;;2.58;1.40;;;-10.60;99.90;;;;;;4935589;29;20016;-70
2022/01/06 04:04:13;;;;;;;1.50;1.40;;;-10.70;99.90;;;;;;4935410;29;20035;-70
2022/01/06 04:06:39;;;;;;;1.42;1.15;;;-10.70;99.90;;;;;;4935499;29;20020;-70
2022/01/06 04:09:06;;;;;;;1.23;1.15;;;-10.70;99.90;;;;;;4934996;29;20027;-70
2022/01/06 04:11:31;;;;;;;2.10;1.38;;;-10.60;99.90;;;;;;4935210;29;20383;-72
2022/01/06 04:13:58;;;;;;;1.00;1.00;;;-10.60;99.90;;;;;;4935249;29;20043;-74
2022/01/06 04:16:26;;;;;;;1.35;1.25;;;-10.60;99.90;;;;;;4935778;29;20055;-72
2022/01/06 04:18:52;;;;;;;1.38;1.23;;;-10.50;99.90;;;;;;4935439;29;20427;-73
2022/01/06 04:21:17;;;;;;;2.45;1.20;;;-10.60;99.90;;;;;;4935371;29;20028;-72
2022/01/06 04:23:43;;;;;;;2.92;1.25;;;-10.50;99.90;;;;;;4935168;29;20027;-72
2022/01/06 04:26:09;;;;;;;1.65;1.40;;;-10.40;99.90;;;;;;4935476;29;20039;-72
2022/01/06 04:28:36;;;;;;;1.20;1.20;;;-10.40;99.90;;;;;;4935535;29;20667;-71
2022/01/06 04:31:02;;;;;;;1.50;1.40;;;-10.30;99.90;;;;;;4935557;29;20027;-71
2022/01/06 04:33:28;;;;;;;1.63;1.42;;;-10.30;99.90;;;;;;4935224;29;20032;-71
2022/01/06 04:35:54;;;;;;;1.35;1.27;;;-10.30;99.90;;;;;;4935041;29;20082;-72
2022/01/06 04:38:21;;;;;;;1.88;1.42;;;-10.30;99.90;;;;;;4934948;29;20142;-71
2022/01/06 04:40:47;;;;;;;3.10;1.30;;;-10.30;99.90;;;;;;4934957;29;20042;-71
2022/01/06 04:43:13;;;;;;;1.10;1.10;;;-10.30;99.90;;;;;;4933984;29;20036;-71
2022/01/06 04:45:39;;;;;;;2.50;1.25;;;-10.30;99.90;;;;;;4934885;29;20028;-72
2022/01/06 04:48:04;;;;;;;3.55;1.40;;;-10.20;99.90;;;;;;4934951;29;20039;-72
2022/01/06 04:50:30;;;;;;;2.60;1.40;;;-10.20;99.90;;;;;;4935156;29;20754;-71
2022/01/06 04:52:57;;;;;;;3.53;1.17;;;-10.20;99.90;;;;;;4935019;29;20031;-71
2022/01/06 04:55:23;;;;;;;1.20;1.20;;;-10.20;99.90;;;;;;4935124;29;20419;-71
2022/01/06 04:57:48;;;;;;;3.45;1.30;;;-10.10;99.90;;;;;;4934732;29;20023;-72
2022/01/06 05:00:14;;;;;;;2.95;1.10;;;-10.10;99.90;;;;;;4934876;29;20035;-71
2022/01/06 05:02:40;;;;;;;1.98;1.40;;;-10.10;99.90;;;;;;4934677;29;20038;-70
2022/01/06 05:05:06;;;;;;;1.17;1.17;;;-10.20;99.90;;;;;;4934793;29;20551;-70
2022/01/06 05:07:32;;;;;;;2.20;1.40;;;-10.20;99.90;;;;;;4935061;29;20020;-70
2022/01/06 05:09:58;;;;;;;2.40;1.20;;;-10.20;99.90;;;;;;4934906;29;20443;-71
2022/01/06 05:12:24;;;;;;;2.97;1.30;;;-10.20;99.90;;;;;;4934716;29;20059;-70
2022/01/06 05:14:49;;;;;;;2.60;1.20;;;-10.20;99.90;;;;;;4933277;29;20031;-70
2022/01/06 05:17:15;;;;;;;1.50;1.40;;;-10.20;99.90;;;;;;4934670;29;20028;-70
2022/01/06 05:19:41;;;;;;;1.45;1.23;;;-10.20;99.90;;;;;;4934464;29;20132;-72
2022/01/06 05:22:06;;;;;;;1.98;1.30;;;-10.10;99.90;;;;;;4936404;29;20019;-73
2022/01/06 05:24:34;;;;;;;2.20;1.15;;;-10.10;99.90;;;;;;4938569;29;20503;-71
2022/01/06 05:27:00;;;;;;;4.13;1.33;;;-10.10;99.90;;;;;;4938522;29;20097;-72
2022/01/06 05:29:26;;;;;;;1.73;1.40;;;-10.10;99.90;;;;;;4938362;29;20118;-73
2022/01/06 05:31:52;;;;;;;2.83;1.48;;;-10.00;99.90;;;;;;4938181;29;20031;-71
2022/01/06 05:34:17;;;;;;;2.83;1.45;;;-10.00;99.90;;;;;;4938349;29;20024;-68
2022/01/06 05:36:43;;;;;;;7.22;1.33;;;-9.90;99.90;;;;;;4938104;29;20042;-73
2022/01/06 05:39:09;;;;;;;4.10;1.40;;;-10.00;99.90;;;;;;4936682;29;20040;-74
2022/01/06 05:41:35;;;;;;;1.63;1.30;;;-10.00;99.90;;;;;;4938103;29;20093;-76
2022/01/06 05:44:01;;;;;;;1.40;1.30;;;-9.30;99.90;;;;;;4937468;29;20099;-72
2022/01/06 05:46:27;;;;;;;3.85;1.40;;;-8.80;99.90;;;;;;4937553;29;20059;-72
2022/01/06 05:48:53;;;;;;;2.08;1.60;;;-8.90;99.90;;;;;;4937469;29;20036;-74
2022/01/06 05:51:19;;;;;;;2.67;1.40;;;-9.10;99.90;;;;;;4937651;29;20015;-72
2022/01/06 05:53:44;;;;;;;2.80;1.60;;;-9.20;99.90;;;;;;4937313;29;20063;-74
2022/01/06 05:56:10;;;;;;;1.30;1.30;;;-9.40;99.90;;;;;;4937607;29;20498;-75
2022/01/06 05:58:39;;;;;;;5.05;1.40;;;-9.40;99.90;;;;;;4938009;29;20059;-71
2022/01/06 06:01:07;;;;;;;1.50;1.40;;;-9.40;99.90;;;;;;4937527;29;20024;-71
2022/01/06 06:03:33;;;;;;;4.80;1.58;;;-9.50;99.90;;;;;;4937176;29;20119;-70
2022/01/06 06:05:59;;;;;;;1.90;1.40;;;-9.60;99.90;;;;;;4937495;29;20397;-70
2022/01/06 06:08:25;;;;;;;3.83;1.30;;;-9.70;99.90;;;;;;4936778;29;20030;-70
2022/01/06 06:10:50;;;;;;;3.60;1.40;;;-9.70;99.90;;;;;;4937745;29;20083;-74
2022/01/06 06:13:16;;;;;;;6.10;1.50;;;-9.70;99.90;;;;;;4935768;29;20439;-73
2022/01/06 06:15:42;;;;;;;5.95;1.60;;;-9.70;99.90;;;;;;4937522;29;20035;-73
2022/01/06 06:18:12;;;;;;;1.83;1.40;;;-9.70;99.90;;;;;;4937541;29;20471;-73
2022/01/06 06:20:39;;;;;;;2.03;1.40;;;-9.60;99.90;;;;;;4937932;29;20042;-73
2022/01/06 06:23:05;;;;;;;2.10;1.55;;;-9.60;99.90;;;;;;4937113;29;20028;-70
2022/01/06 06:25:32;;;;;;;2.38;1.40;;;-9.70;99.90;;;;;;4937328;29;20559;-72
2022/01/06 06:27:57;;;;;;;2.47;1.40;;;-9.70;99.90;;;;;;4937163;29;20028;-71
2022/01/06 06:30:23;;;;;;;3.42;1.40;;;-9.20;99.90;;;;;;4935974;29;20039;-71
2022/01/06 06:32:49;;;;;;;1.48;1.25;;;-9.10;99.90;;;;;;4936301;29;20032;-72
2022/01/06 06:35:15;;;;;;;2.95;1.40;;;-9.20;99.90;;;;;;4937206;29;20105;-74
2022/01/06 06:37:41;;;;;;;3.38;1.58;;;-9.30;99.90;;;;;;4936863;29;20051;-75
2022/01/06 06:40:08;;;;;;;2.70;1.45;;;-9.40;99.90;;;;;;4937087;29;20039;-71
2022/01/06 06:42:34;;;;;;;2.67;1.40;;;-9.50;99.90;;;;;;4937108;29;20383;-72
2022/01/06 06:45:00;;;;;;;2.90;1.38;;;-9.50;99.90;;;;;;4936821;29;20036;-71
2022/01/06 06:47:25;;;;;;;4.55;1.60;;;-9.50;99.90;;;;;;4936992;29;20028;-71
2022/01/06 06:49:52;;;;;;;1.90;1.70;;;-9.50;99.90;;;;;;4936849;29;20027;-70
2022/01/06 06:52:18;;;;;;;2.42;1.73;;;-8.80;99.90;;;;;;4936969;29;20152;-72
2022/01/06 06:54:43;;;;;;;2.13;1.58;;;-8.90;99.90;;;;;;4936119;29;20714;-72
2022/01/06 06:57:10;;;;;;;3.97;2.45;;;-9.00;99.90;;;;;;4934583;29;20246;-70
2022/01/06 06:59:36;;;;;;;5.60;2.40;;;-9.10;99.90;;;;;;4936264;29;20544;-72
2022/01/06 07:02:02;;;;;;;8.10;2.78;;;-9.10;99.90;;;;;;4936488;29;20395;-71
2022/01/06 07:04:27;;;;;;;5.30;2.25;;;-9.30;99.90;;;;;;4936532;29;20036;-72
2022/01/06 07:06:53;;;;;;;2.63;1.80;;;-9.30;99.90;;;;;;4936677;29;20028;-73
2022/01/06 07:09:19;;;;;;;3.35;2.00;;;-9.40;99.90;;;;;;4936700;29;20027;-73
2022/01/06 07:11:44;;;;;;;3.03;1.73;;;-9.50;99.90;;;;;;4936890;29;20049;-72
2022/01/06 07:14:10;;;;;;;6.15;1.70;;;-9.50;99.90;;;;;;4936575;29;20027;-72
2022/01/06 07:16:36;;;;;;;1.73;1.63;;;-9.50;99.90;;;;;;4936915;29;20056;-72
2022/01/06 07:19:01;;;;;;;2.60;1.50;;;-9.60;99.90;;;;;;4935322;29;20483;-72
2022/01/06 07:21:27;;;;;;;2.28;1.42;;;-9.60;99.90;;;;;;4934314;29;20027;-72
2022/01/06 07:23:53;;;;;;;1.80;1.50;;;-9.60;99.90;;;;;;4935692;29;20431;-72
2022/01/06 07:26:19;;;;;;;5.68;1.48;;;-9.60;99.90;;;;;;4925320;29;20056;-72
2022/01/06 07:28:45;;;;;;;3.78;2.00;;;-9.60;99.90;;;;;;4922060;29;20402;-78
2022/01/06 07:31:11;;;;;;;2.50;2.10;;;-9.60;99.90;;;;;;4936117;29;20039;-71
2022/01/06 07:33:37;;;;;;;2.17;1.70;;;-9.60;99.90;;;;;;4936082;29;20043;-71
2022/01/06 07:36:03;;;;;;;1.73;1.30;;;-9.60;99.90;;;;;;4935716;29;20430;-72
2022/01/06 07:38:29;;;;;;;3.55;1.30;;;-9.60;99.90;;;;;;4935764;29;20051;-83
2022/01/06 07:40:55;;;;;;;7.68;1.77;;;-9.60;99.90;;;;;;4933985;29;20087;-76
2022/01/06 07:43:22;;;;;;;4.28;1.42;;;-9.60;99.90;;;;;;4935855;29;20031;-75
2022/01/06 07:45:49;;;;;;;2.17;1.40;;;-9.60;99.90;;;;;;4928999;29;20555;-74
2022/01/06 07:48:25;;;;;;;3.75;1.40;;;-9.60;99.90;;;;;;4917078;29;20420;-74
2022/01/06 07:50:51;;;;;;;3.60;1.30;;;-9.60;99.90;;;;;;4917267;29;20028;-70
2022/01/06 07:53:17;;;;;;;1.35;1.25;;;-9.50;99.90;;;;;;4930279;29;20114;-72
2022/01/06 07:55:43;;;;;;;20.40;7.78;;;-9.50;99.90;;;;;;4916486;29;20485;-70
2022/01/06 07:58:09;;;;;;;7.63;3.47;;;-9.40;99.90;;;;;;4916406;29;20064;-69
2022/01/06 08:00:35;;;;;;;4.60;1.95;;;-9.30;99.90;;;;;;4932249;29;20059;-69
2022/01/06 08:03:00;;;;;;;3.70;1.70;;;-9.30;99.90;;;;;;4935202;29;20063;-70
2022/01/06 08:05:27;;;;;;;3.08;1.60;;;-9.20;99.90;;;;;;4935042;29;20100;-71
2022/01/06 08:07:54;;;;;;;1.40;1.30;;;-9.10;99.90;;;;;;4935215;29;20026;-70
2022/01/06 08:10:21;;;;;;;2.60;1.50;;;-8.90;99.90;;;;;;4935440;29;20419;-70
2022/01/06 08:12:47;;;;;;;9.65;1.83;;;-7.90;99.90;;;;;;4934045;29;20083;-70
2022/01/06 08:15:14;;;;;;;5.43;1.83;;;-7.10;99.90;;;;;;4935495;29;20383;-72
2022/01/06 08:17:40;;;;;;;2.10;1.63;;;-7.00;99.90;;;;;;4935233;29;20036;-71
2022/01/06 08:20:08;;;;;;;2.78;1.70;;;-7.20;99.90;;;;;;4935272;29;20085;-72
2022/01/06 08:22:35;;;;;;;2.63;1.60;;;-7.40;99.90;;;;;;4934452;29;20032;-73
2022/01/06 08:25:05;;;;;;;3.60;2.00;;;-7.20;99.90;;;;;;4934990;29;20067;-76
2022/01/06 08:27:32;;;;;;;2.25;2.05;;;-7.10;99.90;;;;;;4935323;29;20028;-77
2022/01/06 08:29:57;;;;;;;8.40;3.05;;;-7.30;99.90;;;;;;4934708;29;20107;-74
2022/01/06 08:32:23;;;;;;;6.50;2.42;;;-6.10;99.90;;;;;;4935276;29;20127;-74
2022/01/06 08:34:49;;;;;;;7.07;3.25;;;-5.50;99.90;;;;;;4933884;29;20492;-74
2022/01/06 08:37:15;;;;;;;6.03;1.98;;;-6.00;99.90;;;;;;4935096;29;20036;-74
2022/01/06 08:39:41;;;;;;;5.85;2.20;;;-6.50;99.90;;;;;;4935049;29;20055;-74
2022/01/06 08:42:07;;;;;;;4.47;1.90;;;-7.00;99.90;;;;;;4935363;29;20027;-74
2022/01/06 08:44:33;;;;;;;2.17;1.95;;;-7.30;99.90;;;;;;4935266;29;20039;-74
2022/01/06 08:47:00;;;;;;;2.63;1.67;;;-7.50;99.90;;;;;;4935177;29;20373;-74
2022/01/06 08:49:27;;;;;;;3.55;2.00;;;-7.60;99.90;;;;;;4935267;29;20038;-74
2022/01/06 08:51:53;;;;;;;4.60;2.13;;;-7.70;99.90;;;;;;4933714;29;20067;-74
2022/01/06 08:54:19;;;;;;;2.72;1.95;;;-7.70;99.90;;;;;;4934881;29;20028;-72
2022/01/06 08:56:45;;;;;;;4.07;1.80;;;-7.80;99.90;;;;;;4934501;29;20451;-72
2022/01/06 08:59:10;;;;;;;2.72;1.92;;;-7.80;99.90;;;;;;4934980;29;20034;-72
2022/01/06 09:01:36;;;;;;;3.20;1.70;;;-8.00;99.90;;;;;;4934915;29;20058;-72
2022/01/06 09:04:03;;;;;;;2.75;1.60;;;-8.10;99.90;;;;;;4934592;29;20472;-72
2022/01/06 09:06:29;;;;;;;2.33;1.75;;;-8.20;99.90;;;;;;4933542;29;20028;-72
2022/01/06 09:08:55;;;;;;;1.98;1.65;;;-8.20;99.90;;;;;;4934773;29;20428;-72
2022/01/06 09:11:20;;;;;;;5.57;2.13;;;-8.30;99.90;;;;;;4935025;29;20020;-71
2022/01/06 09:13:46;;;;;;;8.25;2.13;;;-8.40;99.90;;;;;;4934734;29;20032;-71
2022/01/06 09:16:13;;;;;;;3.40;1.73;;;-8.50;99.90;;;;;;4934636;29;20051;-71
2022/01/06 09:18:40;;;;;;;2.78;1.70;;;-8.50;99.90;;;;;;4934934;29;20094;-72
2022/01/06 09:21:06;;;;;;;3.50;1.65;;;-8.50;99.90;;;;;;4934057;29;20027;-71
2022/01/06 09:23:32;;;;;;;2.85;1.70;;;-8.40;99.90;;;;;;4934127;29;20103;-72
2022/01/06 09:25:58;;;;;;;5.70;1.80;;;-8.40;99.90;;;;;;4934028;29;20080;-71
2022/01/06 09:28:24;;;;;;;2.58;1.92;;;-8.50;99.90;;;;;;4934379;29;20024;-71
2022/01/06 09:30:55;;;;;;;5.97;1.92;;;-8.60;99.90;;;;;;4934132;29;20598;-72
2022/01/06 09:33:22;;;;;;;4.32;2.00;;;-8.70;99.90;;;;;;4934474;29;20020;-70
2022/01/06 09:35:49;;;;;;;2.55;2.03;;;-8.80;99.90;;;;;;4934547;29;20504;-72
2022/01/06 09:38:15;;;;;;;4.20;2.33;;;-8.80;99.90;;;;;;4934383;29;20062;-71
2022/01/06 09:40:44;;;;;;;2.47;2.00;;;-6.80;99.90;;;;;;4934416;29;20505;-72
2022/01/06 09:43:12;;;;;;;3.75;1.80;;;-5.90;99.90;;;;;;4934376;29;20028;-72
2022/01/06 09:45:39;;;;;;;2.15;1.85;;;-6.40;99.90;;;;;;4934485;29;20038;-72
2022/01/06 09:48:05;;;;;;;3.88;1.95;;;-7.00;99.90;;;;;;4934207;29;20028;-72
2022/01/06 09:50:32;;;;;;;2.50;1.48;;;-7.40;99.90;;;;;;4934348;29;20114;-71
2022/01/06 09:52:58;;;;;;;6.32;1.85;;;-7.40;99.90;;;;;;4933744;29;20495;-72
2022/01/06 09:55:23;;;;;;;5.63;1.80;;;-7.30;99.90;;;;;;4934229;29;20024;-72
2022/01/06 09:57:57;;;;;;;3.03;1.70;;;-7.50;99.90;;;;;;4933899;29;20468;-72
2022/01/06 10:00:24;;;;;;;2.60;1.70;;;-7.60;99.90;;;;;;4933919;29;20110;-72
2022/01/06 10:03:10;;;;;;;5.88;1.30;;;-7.70;99.90;;;;;;4933831;29;20026;-73
2022/01/06 10:05:38;;;;;;;4.63;1.73;;;-7.90;99.90;;;;;;4931812;29;20148;-72
2022/01/06 10:08:05;;;;;;;4.03;1.65;;;-8.10;99.90;;;;;;4934798;29;20027;-73
2022/01/06 10:10:31;;;;;;;4.95;1.75;;;-8.10;99.90;;;;;;4937144;29;20023;-72
2022/01/06 10:12:58;;;;;;;3.00;1.60;;;-8.10;99.90;;;;;;4937340;29;20077;-72
2022/01/06 10:15:27;;;;;;;2.03;1.60;;;-8.10;99.90;;;;;;4937455;29;20111;-73
2022/01/06 10:17:55;;;;;;;3.30;1.55;;;-8.20;99.90;;;;;;4934782;29;20074;-72
2022/01/06 10:20:26;;;;;;;5.35;1.52;;;-8.30;99.90;;;;;;4936916;29;20032;-73
2022/01/06 10:22:57;;;;;;;5.75;1.55;;;-8.40;99.90;;;;;;4937368;29;20024;-71
2022/01/06 10:25:26;;;;;;;3.90;1.60;;;-8.40;99.90;;;;;;4936509;29;20039;-71
2022/01/06 10:27:56;;;;;;;3.80;1.63;;;-8.50;99.90;;;;;;4937476;29;20058;-70
2022/01/06 10:30:22;;;;;;;;;;;-8.50;99.90;;;;;;4940617;29;20031;-71
2022/01/06 10:32:48;;;;;;;9.00;1.80;;;-8.60;99.90;;;;;;4936920;29;19907;-71
2022/01/06 10:35:20;;;;;;;2.92;1.63;;;-8.60;99.90;;;;;;4937011;29;20118;-70
2022/01/06 10:37:48;;;;;;;2.35;1.60;;;-8.50;99.90;;;;;;4936942;29;20047;-70
2022/01/06 10:40:22;;;;;;;6.50;1.75;;;-8.50;99.90;;;;;;4936711;29;20063;-70
2022/01/06 10:42:51;;;;;;;5.50;1.80;;;-8.50;99.90;;;;;;4936982;29;20039;-70
2022/01/06 10:45:24;;;;;;;3.10;1.70;;;-8.50;99.90;;;;;;4936717;29;20052;-70
2022/01/06 10:47:55;;;;;;;4.70;1.70;;;-8.40;99.90;;;;;;4936927;29;20028;-70
2022/01/06 10:50:24;;;;;;;5.18;1.85;;;-8.30;99.90;;;;;;4936946;29;20039;-70
2022/01/06 10:53:02;;;;;;;3.38;1.60;;;-8.30;99.90;;;;;;4936581;29;20082;-68
2022/01/06 10:55:31;;;;;;;4.68;1.80;;;-8.30;99.90;;;;;;4936742;29;20028;-69
2022/01/06 10:58:11;;;;;;;3.03;1.70;;;-8.30;99.90;;;;;;4936633;29;20492;-69
2022/01/06 11:00:41;;;;;;;3.70;1.58;;;-8.30;99.90;;;;;;4936723;29;20043;-69
2022/01/06 11:03:11;;;;;;;;;;;-8.30;99.90;;;;;;4937121;29;20384;-69
2022/01/06 11:05:43;;;;;;;1.50;1.40;;;-8.30;99.90;;;;;;4936543;29;19930;-69
2022/01/06 11:08:10;;;;;;;1.95;1.52;;;-8.20;99.90;;;;;;4936499;29;20057;-69
2022/01/06 11:10:39;;;;;;;1.98;1.42;;;-8.20;99.90;;;;;;4936597;29;20024;-69
2022/01/06 11:13:05;;;;;;;5.13;1.60;;;-8.20;99.90;;;;;;4936518;29;20039;-69
2022/01/06 11:15:32;;;;;;;2.47;1.40;;;-8.10;99.90;;;;;;4936780;29;20272;-69
2022/01/06 11:18:01;;;;;;;3.05;1.50;;;-8.00;99.90;;;;;;4936335;29;20039;-69
2022/01/06 11:20:27;;;;;;;1.40;1.38;;;-8.00;99.90;;;;;;4936304;29;20082;-69
2022/01/06 11:22:57;;;;;;;7.90;1.48;;;-8.00;99.90;;;;;;4936298;29;20032;-69
2022/01/06 11:25:36;;;;;;;3.75;1.60;;;-7.90;99.90;;;;;;4936196;29;20066;-69
2022/01/06 11:28:04;;;;;;;1.90;1.40;;;-7.80;99.90;;;;;;4936437;29;20059;-69
2022/01/06 11:30:44;;;;;;;1.30;1.20;;;-7.80;99.90;;;;;;4936203;29;20065;-69
2022/01/06 11:33:11;;;;;;;1.37;1.27;;;-7.70;99.90;;;;;;4936183;29;20032;-68
2022/01/06 11:35:57;;;;;;;2.65;1.15;;;-7.70;99.90;;;;;;4936120;29;20028;-69
2022/01/06 11:38:26;;;;;;;1.55;1.45;;;-7.60;99.90;;;;;;4935817;29;20626;-69
2022/01/06 11:41:12;;;;;;;5.00;1.50;;;-7.60;99.90;;;;;;4936306;29;20034;-69
2022/01/06 11:43:40;;;;;;;3.05;1.30;;;-7.60;99.90;;;;;;4935761;29;20036;-68
2022/01/06 11:46:06;;;;;;;1.75;1.35;;;-7.50;99.90;;;;;;4935892;29;20035;-69
2022/01/06 11:48:32;;;;;;;2.22;1.20;;;-7.50;99.90;;;;;;4936259;29;20028;-69
2022/01/06 11:50:58;;;;;;;1.25;1.20;;;-7.40;99.90;;;;;;4934360;29;20435;-69
2022/01/06 11:53:34;;;;;;;3.00;1.25;;;-7.40;99.90;;;;;;4935533;29;20024;-69
2022/01/06 11:56:12;;;;;;;1.30;1.20;;;-7.40;99.90;;;;;;4935816;29;20031;-69
2022/01/06 11:58:37;;;;;;;1.77;1.30;;;-7.30;99.90;;;;;;4935741;29;20480;-69
2022/01/06 12:01:07;;;;;;;2.92;1.60;;;-7.30;99.90;;;;;;4935755;29;20036;-69
2022/01/06 12:03:44;;;;;;;2.75;1.95;;;-7.30;99.90;;;;;;4935286;29;20105;-70
2022/01/06 12:06:25;;;;;;;1.20;1.10;;;-7.20;99.90;;;;;;4933063;29;20044;-69
2022/01/06 12:08:50;;;;;;;2.42;1.17;;;-7.30;99.90;;;;;;4935797;29;20028;-69
2022/01/06 12:11:36;;;;;;;2.08;1.20;;;-7.30;99.90;;;;;;4935415;29;20054;-70
2022/01/06 12:14:02;;;;;;;1.27;1.20;;;-7.30;99.90;;;;;;4933899;29;20099;-68
2022/01/06 12:16:31;;;;;;;4.22;1.45;;;-7.30;99.90;;;;;;4935110;29;20484;-67
2022/01/06 12:18:59;;;;;;;1.20;1.20;;;-7.20;99.90;;;;;;4935616;29;20115;-69
2022/01/06 12:21:25;;;;;;;2.78;1.27;;;-7.20;99.90;;;;;;4935577;29;20032;-68
2022/01/06 12:24:06;;;;;;;3.15;1.30;;;-7.20;99.90;;;;;;4935524;29;20031;-69
2022/01/06 12:26:33;;;;;;;2.95;1.48;;;-7.30;99.90;;;;;;4935564;29;20031;-69
2022/01/06 12:29:00;;;;;;;1.67;1.40;;;-7.30;99.90;;;;;;4933959;29;20028;-69
2022/01/06 12:31:28;;;;;;;1.65;1.27;;;-7.30;99.90;;;;;;4934527;29;20028;-69
2022/01/06 12:33:59;;;;;;;1.30;1.20;;;-7.30;99.90;;;;;;4935130;29;20026;-70
2022/01/06 12:36:25;;;;;;;;;;;-7.30;99.90;;;;;;4935541;29;20034;-69
2022/01/06 12:38:51;;;;;;;2.30;1.33;;;-5.80;99.90;;;;;;4934954;29;19965;-69
2022/01/06 12:41:27;;;;;;;2.20;1.50;;;-6.00;99.90;;;;;;4935237;29;20384;-69
2022/01/06 12:43:55;;;;;;;2.90;1.48;;;-6.40;99.90;;;;;;4935257;29;20038;-69
2022/01/06 12:46:22;;;;;;;2.80;1.40;;;-6.60;99.90;;;;;;4934802;29;20035;-69
2022/01/06 12:48:50;;;;;;;1.35;1.20;;;-6.80;99.90;;;;;;4933750;29;20023;-69
2022/01/06 12:51:30;;;;;;;1.20;1.20;;;-6.80;99.90;;;;;;4934866;29;20024;-70
2022/01/06 12:54:18;;;;;;;2.40;1.10;;;-6.90;99.90;;;;;;4934875;29;20028;-69
2022/01/06 12:56:47;;;;;;;1.88;1.20;;;-6.90;99.90;;;;;;4934946;29;20079;-69
2022/01/06 12:59:21;;;;;;;1.50;1.40;;;-6.90;99.90;;;;;;4934813;29;20024;-69
2022/01/06 13:01:54;;;;;;;5.32;1.05;;;-6.90;99.90;;;;;;4934938;29;20027;-69
2022/01/06 13:04:27;;;;;;;1.40;1.30;;;-6.90;99.90;;;;;;4934720;29;20114;-69
2022/01/06 13:06:58;;;;;;;2.08;1.30;;;-6.90;99.90;;;;;;4934879;29;20598;-69
2022/01/06 13:09:25;;;;;;;;;;;-6.70;99.90;;;;;;4935294;29;20098;-69
2022/01/06 13:11:55;;;;;;;3.08;1.45;;;-6.20;99.90;;;;;;4934851;29;19964;-70
2022/01/06 13:14:36;;;;;;;4.88;1.30;;;-6.30;99.90;;;;;;4934943;29;20057;-70
2022/01/06 13:17:05;;;;;;;2.42;1.65;;;-6.40;99.90;;;;;;4934608;29;20577;-70
2022/01/06 13:19:31;;;;;;;2.55;1.73;;;-6.50;99.90;;;;;;4934162;29;20083;-71
2022/01/06 13:22:02;;;;;;;1.70;1.60;;;-6.50;99.90;;;;;;4934685;29;20027;-70
2022/01/06 13:24:30;;;;;;;2.33;1.38;;;-6.50;99.90;;;;;;4934651;29;20043;-70
2022/01/06 13:27:06;;;;;;;6.65;2.08;;;-6.50;99.90;;;;;;4936050;29;20032;-70
2022/01/06 13:29:42;;;;;;;2.50;1.42;;;-6.50;99.90;;;;;;4934684;29;20027;-70
2022/01/06 13:32:20;;;;;;;1.35;1.25;;;-6.50;99.90;;;;;;4934221;29;20008;-71
2022/01/06 13:34:47;;;;;;;1.60;1.30;;;-6.60;99.90;;;;;;4934160;29;20028;-70
2022/01/06 13:37:18;;;;;;;1.25;1.05;;;-6.60;99.90;;;;;;4931581;29;20110;-70
2022/01/06 13:39:52;;;;;;;1.40;1.30;;;-6.60;99.90;;;;;;4933887;29;20179;-71
2022/01/06 13:42:33;;;;;;;2.03;1.48;;;-6.70;99.90;;;;;;4933693;29;20031;-71
2022/01/06 13:45:10;;;;;;;4.78;2.08;;;-6.70;99.90;;;;;;4936294;29;20042;-71
2022/01/06 13:47:56;;;;;;;3.25;1.95;;;-6.70;99.90;;;;;;4935724;29;20024;-70
2022/01/06 13:51:07;;;;;;;3.53;2.00;;;-6.70;99.90;;;;;;4936551;29;20024;-71
2022/01/06 13:53:35;;;;;;;2.60;1.63;;;-6.70;99.90;;;;;;4935255;29;20020;-71
2022/01/06 13:56:19;;;;;;;5.53;2.10;;;-6.70;99.90;;;;;;4937506;29;20030;-71
2022/01/06 13:58:48;;;;;;;3.60;1.90;;;-6.70;99.90;;;;;;4936752;29;20115;-71
2022/01/06 14:01:17;;;;;;;3.60;1.67;;;-6.60;99.90;;;;;;4934939;29;20431;-71
2022/01/06 14:03:43;;;;;;;2.17;1.65;;;-6.60;99.90;;;;;;4937341;29;20039;-70
2022/01/06 14:06:14;;;;;;;3.97;1.95;;;-6.60;99.90;;;;;;4937198;29;20019;-70